Time;durP1;ratioP1;P1;durP2;ratioP2;P2;SDS_P1;SDS_P2;PMS_P1;PMS_P2;Temp;Humidity;BMP_temperature;BMP_pressure;BME280_temperature;BME280_humidity;BME280_pressure;Samples;Min_cycle;Max_cycle;Signal;HPM_P1;HPM_P2
2024/01/15 00:02:17;;;;;;;17.77;11.87;;;0.90;99.90;;;;;;5053282;28;20249;-71
2024/01/15 00:04:43;;;;;;;19.10;11.70;;;1.20;99.90;;;;;;5053151;28;20183;-71
2024/01/15 00:07:09;;;;;;;22.93;11.53;;;1.20;99.90;;;;;;5039525;28;20183;-71
2024/01/15 00:09:35;;;;;;;23.53;11.87;;;1.40;99.90;;;;;;5033327;28;20258;-72
2024/01/15 00:12:01;;;;;;;17.27;11.87;;;1.30;99.90;;;;;;5033240;28;20202;-72
2024/01/15 00:14:27;;;;;;;19.83;11.77;;;1.20;99.90;;;;;;5034025;28;20430;-71
2024/01/15 00:16:54;;;;;;;18.77;12.07;;;1.30;99.90;;;;;;5044860;28;20419;-71
2024/01/15 00:19:24;;;;;;;19.50;11.73;;;1.50;99.90;;;;;;5035339;28;20448;-71
2024/01/15 00:21:50;;;;;;;23.90;12.67;;;1.60;99.90;;;;;;5053165;28;20794;-72
2024/01/15 00:24:15;;;;;;;18.83;12.27;;;1.60;99.90;;;;;;5053031;28;20444;-71
2024/01/15 00:26:41;;;;;;;14.70;10.20;;;1.30;99.90;;;;;;5043333;28;20410;-71
2024/01/15 00:29:08;;;;;;;18.43;12.20;;;1.20;99.90;;;;;;5033001;28;20172;-71
2024/01/15 00:31:34;;;;;;;17.60;11.10;;;1.10;99.90;;;;;;5033441;28;20246;-71
2024/01/15 00:33:59;;;;;;;21.53;12.13;;;0.90;99.90;;;;;;5033107;28;20994;-71
2024/01/15 00:36:25;;;;;;;18.23;11.17;;;0.90;99.90;;;;;;5040162;28;20488;-71
2024/01/15 00:38:51;;;;;;;16.37;10.43;;;0.90;99.90;;;;;;5053073;28;20258;-71
2024/01/15 00:41:18;;;;;;;18.17;10.97;;;1.00;99.90;;;;;;5052879;28;21027;-71
2024/01/15 00:43:49;;;;;;;19.77;12.13;;;0.80;99.90;;;;;;5052957;28;20181;-71
2024/01/15 00:46:14;;;;;;;17.50;11.07;;;0.80;99.90;;;;;;5046998;28;20453;-71
2024/01/15 00:48:40;;;;;;;16.97;11.43;;;0.80;99.90;;;;;;5033236;28;20433;-71
2024/01/15 00:51:06;;;;;;;18.20;11.50;;;0.70;99.90;;;;;;5032692;28;20413;-71
2024/01/15 00:53:31;;;;;;;20.73;11.30;;;0.70;99.90;;;;;;5017608;28;20179;-71
2024/01/15 00:55:57;;;;;;;17.63;11.10;;;0.70;99.90;;;;;;5040361;28;20172;-71
2024/01/15 00:58:22;;;;;;;16.87;10.80;;;0.70;99.90;;;;;;5056988;28;20201;-71
2024/01/15 01:00:48;;;;;;;18.33;11.13;;;0.60;99.90;;;;;;5056656;28;20209;-71
2024/01/15 01:03:14;;;;;;;20.97;11.63;;;0.60;99.90;;;;;;5056932;28;20162;-71
2024/01/15 01:05:39;;;;;;;17.77;10.83;;;0.60;99.90;;;;;;5055891;28;20182;-71
2024/01/15 01:08:05;;;;;;;15.67;9.87;;;0.60;99.90;;;;;;5036598;28;20217;-71
2024/01/15 01:10:30;;;;;;;16.63;9.97;;;0.70;99.90;;;;;;5018822;28;20225;-71
2024/01/15 01:12:56;;;;;;;17.93;11.10;;;0.80;99.90;;;;;;5036549;28;20665;-72
2024/01/15 01:15:22;;;;;;;19.17;10.57;;;0.80;99.90;;;;;;5037329;28;20651;-71
2024/01/15 01:17:47;;;;;;;15.40;10.00;;;0.80;99.90;;;;;;5054566;28;20171;-71
2024/01/15 01:20:15;;;;;;;19.47;12.60;;;0.90;99.90;;;;;;5056702;28;20498;-71
2024/01/15 01:22:40;;;;;;;17.90;9.83;;;0.90;99.90;;;;;;5055681;28;20184;-71
2024/01/15 01:25:06;;;;;;;17.90;10.17;;;1.00;99.90;;;;;;5054858;28;20531;-71
2024/01/15 01:27:32;;;;;;;17.43;10.47;;;0.90;99.90;;;;;;5038179;28;20911;-71
2024/01/15 01:29:58;;;;;;;17.53;10.53;;;0.90;99.90;;;;;;5056382;28;20224;-71
2024/01/15 01:32:23;;;;;;;19.67;10.73;;;0.90;99.90;;;;;;5056107;28;20568;-71
2024/01/15 01:34:49;;;;;;;16.67;10.50;;;0.90;99.90;;;;;;5036133;28;20274;-71
2024/01/15 01:37:14;;;;;;;16.73;10.47;;;0.90;99.90;;;;;;5049242;28;20186;-71
2024/01/15 01:39:41;;;;;;;16.93;10.27;;;1.20;99.90;;;;;;5023822;28;20170;-71
2024/01/15 01:42:07;;;;;;;15.57;9.90;;;1.10;99.90;;;;;;5018135;28;20602;-71
2024/01/15 01:44:33;;;;;;;17.63;10.47;;;1.00;99.90;;;;;;5035993;28;20422;-71
2024/01/15 01:47:00;;;;;;;18.33;11.10;;;1.10;99.90;;;;;;5046755;28;20454;-71
2024/01/15 01:49:27;;;;;;;16.37;9.97;;;1.20;99.90;;;;;;5056010;28;20163;-71
2024/01/15 01:51:53;;;;;;;17.13;9.40;;;1.20;99.90;;;;;;5055752;28;20751;-71
2024/01/15 01:54:20;;;;;;;19.57;10.43;;;1.30;99.90;;;;;;5055725;28;20420;-71
2024/01/15 01:56:48;;;;;;;16.97;10.40;;;1.20;99.90;;;;;;5028704;28;20414;-70
2024/01/15 01:59:14;;;;;;;15.63;10.70;;;1.30;99.90;;;;;;5038207;28;20406;-71
2024/01/15 02:01:40;;;;;;;18.60;11.07;;;1.50;99.90;;;;;;5035867;28;20441;-71
2024/01/15 02:04:06;;;;;;;17.00;9.83;;;1.70;99.90;;;;;;5035379;28;20774;-71
2024/01/15 02:06:31;;;;;;;16.70;10.70;;;1.70;99.90;;;;;;5042407;28;20463;-71
2024/01/15 02:08:57;;;;;;;16.63;10.33;;;1.30;99.90;;;;;;5037490;28;20217;-71
2024/01/15 02:11:23;;;;;;;18.60;10.80;;;1.30;99.90;;;;;;5055329;28;20599;-71
2024/01/15 02:13:49;;;;;;;15.77;9.60;;;1.20;99.90;;;;;;5055249;28;20194;-71
2024/01/15 02:16:14;;;;;;;18.63;10.37;;;1.40;99.90;;;;;;5051097;28;20171;-71
2024/01/15 02:18:44;;;;;;;15.27;9.03;;;1.30;99.90;;;;;;5017557;28;20540;-71
2024/01/15 02:21:10;;;;;;;19.43;10.57;;;1.30;99.90;;;;;;5035253;28;20214;-71
2024/01/15 02:23:37;;;;;;;15.97;9.73;;;1.30;99.90;;;;;;5035290;28;20398;-71
2024/01/15 02:26:03;;;;;;;19.17;10.10;;;1.10;99.90;;;;;;5037761;28;20407;-71
2024/01/15 02:28:29;;;;;;;16.73;9.60;;;1.10;99.90;;;;;;5055106;28;20420;-71
2024/01/15 02:30:54;;;;;;;22.60;11.43;;;1.10;99.90;;;;;;5055162;28;20409;-71
2024/01/15 02:33:20;;;;;;;15.73;9.93;;;1.10;99.90;;;;;;5055039;28;20162;-71
2024/01/15 02:35:50;;;;;;;18.70;10.43;;;1.10;99.90;;;;;;5054698;28;20198;-71
2024/01/15 02:38:16;;;;;;;16.87;10.33;;;1.00;99.90;;;;;;5034919;28;20168;-71
2024/01/15 02:40:43;;;;;;;17.90;10.17;;;1.10;99.90;;;;;;5034796;28;20476;-71
2024/01/15 02:43:08;;;;;;;15.93;9.37;;;1.30;99.90;;;;;;5035040;28;20406;-71
2024/01/15 02:45:34;;;;;;;13.40;8.70;;;1.20;99.90;;;;;;5034757;28;20764;-71
2024/01/15 02:48:00;;;;;;;14.13;9.40;;;1.10;99.90;;;;;;5053180;28;20175;-71
2024/01/15 02:50:25;;;;;;;14.87;9.60;;;1.00;99.90;;;;;;5054640;28;20216;-71
2024/01/15 02:52:51;;;;;;;20.93;9.40;;;1.20;99.90;;;;;;5054583;28;20170;-71
2024/01/15 02:55:16;;;;;;;16.20;10.23;;;1.20;99.90;;;;;;5054502;28;20187;-71
2024/01/15 02:57:42;;;;;;;19.87;11.43;;;1.00;99.90;;;;;;5038628;28;20179;-71
2024/01/15 03:00:08;;;;;;;12.33;8.80;;;1.10;99.90;;;;;;5034540;28;20179;-71
2024/01/15 03:02:39;;;;;;;16.17;10.30;;;1.10;99.90;;;;;;5034554;28;20171;-71
2024/01/15 03:05:06;;;;;;;17.17;9.90;;;1.10;99.90;;;;;;5016660;28;20489;-71
2024/01/15 03:07:31;;;;;;;13.40;8.57;;;1.10;99.90;;;;;;5048936;28;20887;-71
2024/01/15 03:09:57;;;;;;;17.93;10.37;;;1.00;99.90;;;;;;5054373;28;20400;-72
2024/01/15 03:12:23;;;;;;;16.43;10.00;;;1.00;99.90;;;;;;5054347;28;20162;-72
2024/01/15 03:14:48;;;;;;;14.70;9.43;;;0.90;99.90;;;;;;5035199;28;20187;-71
2024/01/15 03:17:14;;;;;;;18.03;9.60;;;1.10;99.90;;;;;;5036060;28;20376;-72
2024/01/15 03:19:39;;;;;;;16.23;11.40;;;1.10;99.90;;;;;;5054082;28;20166;-72
2024/01/15 03:22:08;;;;;;;15.30;9.83;;;1.10;99.90;;;;;;5036491;28;20306;-72
2024/01/15 03:24:33;;;;;;;25.07;11.90;;;1.10;99.90;;;;;;5071080;22;20897;-68
2024/01/15 03:26:59;;;;;;;17.87;11.67;;;1.00;99.90;;;;;;5025912;28;20397;-69
2024/01/15 03:29:26;;;;;;;16.87;10.33;;;0.90;99.90;;;;;;5054302;28;20163;-68
2024/01/15 03:31:52;;;;;;;15.77;9.27;;;1.00;99.90;;;;;;5054326;28;20530;-67
2024/01/15 03:34:17;;;;;;;15.93;9.93;;;1.10;99.90;;;;;;5053835;28;20417;-69
2024/01/15 03:36:43;;;;;;;16.23;9.07;;;1.20;99.90;;;;;;5047164;28;20187;-69
2024/01/15 03:39:08;;;;;;;15.67;10.33;;;1.10;99.90;;;;;;5053158;28;20228;-68
2024/01/15 03:41:34;;;;;;;15.20;10.00;;;1.10;99.90;;;;;;5055148;28;20190;-68
2024/01/15 03:44:00;;;;;;;18.43;10.00;;;1.20;99.90;;;;;;5059424;28;20527;-68
2024/01/15 03:46:25;;;;;;;17.77;10.10;;;1.20;99.90;;;;;;5049610;28;20160;-69
2024/01/15 03:48:51;;;;;;;15.43;10.10;;;1.10;99.90;;;;;;5034601;28;20257;-69
2024/01/15 03:51:18;;;;;;;18.70;10.10;;;1.10;99.90;;;;;;5034036;28;20167;-69
2024/01/15 03:53:43;;;;;;;18.10;11.90;;;1.10;99.90;;;;;;5034355;28;20237;-68
2024/01/15 03:56:09;;;;;;;16.63;9.97;;;1.10;99.90;;;;;;5036006;28;20425;-69
2024/01/15 03:58:35;;;;;;;16.40;9.50;;;1.20;99.90;;;;;;5050622;28;20206;-69
2024/01/15 04:01:00;;;;;;;14.00;9.47;;;1.30;99.90;;;;;;5053625;28;20190;-69
2024/01/15 04:03:26;;;;;;;13.67;8.83;;;1.20;99.90;;;;;;5053562;28;20645;-69
2024/01/15 04:05:51;;;;;;;15.40;9.70;;;1.20;99.90;;;;;;5053430;28;20218;-70
2024/01/15 04:08:17;;;;;;;18.00;10.53;;;1.30;99.90;;;;;;5033910;28;20186;-68
2024/01/15 04:10:42;;;;;;;18.13;10.10;;;1.20;99.90;;;;;;5033516;28;20205;-68
2024/01/15 04:13:08;;;;;;;16.77;9.50;;;1.10;99.90;;;;;;5033910;28;20198;-68
2024/01/15 04:15:33;;;;;;;16.33;9.93;;;1.10;99.90;;;;;;5015740;28;20195;-69
2024/01/15 04:18:00;;;;;;;14.70;9.50;;;1.20;99.90;;;;;;5050232;28;20186;-69
2024/01/15 04:20:26;;;;;;;14.23;9.40;;;1.40;99.90;;;;;;5053187;28;20221;-69
2024/01/15 04:22:52;;;;;;;14.53;9.03;;;1.40;99.90;;;;;;5053372;28;20436;-69
2024/01/15 04:25:17;;;;;;;13.77;8.27;;;1.50;99.90;;;;;;5053047;28;20202;-69
2024/01/15 04:27:43;;;;;;;16.13;9.33;;;1.40;99.90;;;;;;5037759;28;20167;-69
2024/01/15 04:30:09;;;;;;;13.83;8.33;;;1.50;99.90;;;;;;5033287;28;20249;-68
2024/01/15 04:32:35;;;;;;;11.80;7.57;;;1.40;99.90;;;;;;5033713;28;20206;-68
2024/01/15 04:35:00;;;;;;;13.40;8.90;;;1.50;99.90;;;;;;5033045;28;20775;-68
2024/01/15 04:37:26;;;;;;;13.40;8.60;;;1.40;99.90;;;;;;5027355;28;20236;-69
2024/01/15 04:39:54;;;;;;;13.03;8.77;;;1.50;99.90;;;;;;5053033;28;20199;-69
2024/01/15 04:42:23;;;;;;;17.80;9.00;;;1.50;99.90;;;;;;5035260;28;20158;-69
2024/01/15 04:44:49;;;;;;;14.23;8.23;;;1.50;99.90;;;;;;5053269;28;20427;-70
2024/01/15 04:47:14;;;;;;;14.03;9.10;;;1.50;99.90;;;;;;5042572;28;20737;-67
2024/01/15 04:49:40;;;;;;;13.13;8.07;;;1.50;99.90;;;;;;5033108;28;20680;-68
2024/01/15 04:52:05;;;;;;;16.67;9.27;;;1.60;99.90;;;;;;5033462;28;20198;-69
2024/01/15 04:54:31;;;;;;;17.73;9.37;;;1.70;99.90;;;;;;5033145;28;20190;-68
2024/01/15 04:56:57;;;;;;;13.50;8.50;;;1.60;99.90;;;;;;5040750;28;20163;-68
2024/01/15 04:59:22;;;;;;;11.97;8.40;;;1.60;99.90;;;;;;5053026;28;20166;-69
2024/01/15 05:01:48;;;;;;;12.03;9.00;;;1.60;99.90;;;;;;5052870;28;20198;-68
2024/01/15 05:04:14;;;;;;;13.87;9.10;;;1.60;99.90;;;;;;5052806;28;20178;-68
2024/01/15 05:06:40;;;;;;;12.57;8.47;;;1.60;99.90;;;;;;5047421;28;20398;-69
2024/01/15 05:09:05;;;;;;;17.60;9.47;;;1.60;99.90;;;;;;5032852;28;20406;-68
2024/01/15 05:11:31;;;;;;;15.23;9.10;;;1.70;99.90;;;;;;5032916;28;20258;-69
2024/01/15 05:13:57;;;;;;;16.43;9.90;;;1.80;99.90;;;;;;5032438;28;20179;-69
2024/01/15 05:16:22;;;;;;;16.90;10.50;;;1.70;99.90;;;;;;5035189;28;20179;-68
2024/01/15 05:18:48;;;;;;;17.87;9.97;;;1.70;99.90;;;;;;5034905;28;20175;-69
2024/01/15 05:21:13;;;;;;;18.47;11.13;;;1.70;99.90;;;;;;5053244;28;20199;-68
2024/01/15 05:23:39;;;;;;;15.93;9.30;;;1.80;99.90;;;;;;5053225;28;20612;-69
2024/01/15 05:26:04;;;;;;;17.00;9.70;;;1.70;99.90;;;;;;5052403;28;20198;-69
2024/01/15 05:28:30;;;;;;;12.70;9.07;;;1.70;99.90;;;;;;5033580;28;20182;-69
2024/01/15 05:30:56;;;;;;;15.07;9.63;;;1.60;99.90;;;;;;5015389;28;20171;-69
2024/01/15 05:33:24;;;;;;;11.87;8.17;;;1.60;99.90;;;;;;5032651;28;20190;-69
2024/01/15 05:35:50;;;;;;;14.60;8.80;;;1.70;99.90;;;;;;5032557;28;20191;-69
2024/01/15 05:38:16;;;;;;;12.47;8.73;;;1.60;99.90;;;;;;5045870;28;20488;-69
2024/01/15 05:40:42;;;;;;;11.50;8.27;;;1.70;99.90;;;;;;5033441;28;20674;-69
2024/01/15 05:43:08;;;;;;;13.23;9.50;;;1.80;99.90;;;;;;5029354;28;20409;-70
2024/01/15 05:45:38;;;;;;;9.63;6.73;;;1.80;99.90;;;;;;5026994;28;20199;-69
2024/01/15 05:48:04;;;;;;;13.30;8.10;;;1.90;99.90;;;;;;5026925;28;20179;-69
2024/01/15 05:50:29;;;;;;;11.53;8.97;;;1.90;99.90;;;;;;5036143;28;20767;-68
2024/01/15 05:52:55;;;;;;;13.40;8.23;;;2.00;99.90;;;;;;5036454;28;20408;-69
2024/01/15 05:55:20;;;;;;;12.60;9.27;;;2.00;99.90;;;;;;5036127;28;20556;-68
2024/01/15 05:57:46;;;;;;;14.80;9.60;;;1.90;99.90;;;;;;5049701;28;20175;-68
2024/01/15 06:00:12;;;;;;;13.90;8.97;;;1.90;99.90;;;;;;5055942;28;20695;-68
2024/01/15 06:02:38;;;;;;;13.93;9.20;;;2.00;99.90;;;;;;5055895;28;20174;-68
2024/01/15 06:05:04;;;;;;;16.47;9.33;;;2.00;99.90;;;;;;5053488;28;20426;-69
2024/01/15 06:07:29;;;;;;;11.97;8.90;;;1.90;99.90;;;;;;5043688;28;20440;-69
2024/01/15 06:09:56;;;;;;;13.07;8.20;;;1.90;99.90;;;;;;5015115;28;20172;-68
2024/01/15 06:12:22;;;;;;;18.10;10.70;;;2.00;99.90;;;;;;5035721;28;20207;-68
2024/01/15 06:14:48;;;;;;;13.00;8.67;;;1.90;99.90;;;;;;5035622;28;20917;-69
2024/01/15 06:17:13;;;;;;;14.60;9.03;;;2.00;99.90;;;;;;5045132;28;20258;-69
2024/01/15 06:19:39;;;;;;;17.33;9.70;;;1.90;99.90;;;;;;5037627;28;20175;-68
2024/01/15 06:22:05;;;;;;;11.97;7.87;;;1.90;99.90;;;;;;5055533;28;20658;-69
2024/01/15 06:24:30;;;;;;;14.00;7.83;;;2.00;99.90;;;;;;5055608;28;20210;-68
2024/01/15 06:26:56;;;;;;;12.60;8.07;;;2.10;99.90;;;;;;5049205;28;20170;-68
2024/01/15 06:29:21;;;;;;;11.07;7.77;;;2.00;99.90;;;;;;5035675;28;20163;-67
2024/01/15 06:31:47;;;;;;;12.93;8.37;;;2.00;99.90;;;;;;5035468;28;20181;-67
2024/01/15 06:34:13;;;;;;;16.23;8.43;;;2.10;99.90;;;;;;5035468;28;20207;-67
2024/01/15 06:36:38;;;;;;;14.23;9.37;;;2.20;99.90;;;;;;5039268;28;20581;-69
2024/01/15 06:39:05;;;;;;;12.40;8.37;;;2.00;99.90;;;;;;5055150;28;20170;-69
2024/01/15 06:41:30;;;;;;;13.63;8.43;;;2.10;99.90;;;;;;5055213;28;20190;-67
2024/01/15 06:43:56;;;;;;;14.47;8.53;;;2.00;99.90;;;;;;5055260;28;20734;-68
2024/01/15 06:46:22;;;;;;;12.97;8.67;;;1.90;99.90;;;;;;5053878;28;20299;-68
2024/01/15 06:48:48;;;;;;;13.07;9.50;;;2.00;99.90;;;;;;5036785;28;20163;-68
2024/01/15 06:51:14;;;;;;;14.07;9.20;;;2.10;99.90;;;;;;5034547;28;20456;-67
2024/01/15 06:53:39;;;;;;;13.00;8.30;;;2.10;99.90;;;;;;5035449;28;20432;-68
2024/01/15 06:56:05;;;;;;;14.70;9.90;;;2.00;99.90;;;;;;5034929;28;20194;-68
2024/01/15 06:58:31;;;;;;;12.67;8.77;;;2.10;99.90;;;;;;5053702;28;20175;-68
2024/01/15 07:00:57;;;;;;;11.73;8.80;;;2.10;99.90;;;;;;5054567;28;20309;-68
2024/01/15 07:03:23;;;;;;;12.47;8.87;;;2.00;99.90;;;;;;5036705;28;20410;-68
2024/01/15 07:05:49;;;;;;;13.33;8.87;;;2.10;99.90;;;;;;5054608;28;20431;-68
2024/01/15 07:08:14;;;;;;;10.70;7.83;;;2.00;99.90;;;;;;5037989;28;20171;-68
2024/01/15 07:10:40;;;;;;;9.50;7.70;;;2.00;99.90;;;;;;5034571;28;20175;-68
2024/01/15 07:13:05;;;;;;;13.00;8.50;;;2.10;99.90;;;;;;5034722;28;20172;-69
2024/01/15 07:15:31;;;;;;;12.70;8.33;;;2.00;99.90;;;;;;5035127;28;20539;-69
2024/01/15 07:17:57;;;;;;;11.33;8.20;;;2.00;99.90;;;;;;5048052;28;20186;-69
2024/01/15 07:20:22;;;;;;;11.40;7.83;;;2.00;99.90;;;;;;5054382;28;20198;-69
2024/01/15 07:22:48;;;;;;;11.97;8.13;;;2.10;99.90;;;;;;5045899;28;20242;-69
2024/01/15 07:25:13;;;;;;;13.30;7.00;;;2.00;99.90;;;;;;5034259;28;20203;-68
2024/01/15 07:27:39;;;;;;;10.07;7.53;;;2.00;99.90;;;;;;5045575;28;20242;-68
2024/01/15 07:30:06;;;;;;;12.53;8.63;;;2.10;99.90;;;;;;5054212;28;20163;-68
2024/01/15 07:32:32;;;;;;;13.20;7.90;;;2.00;99.90;;;;;;5054166;28;20526;-67
2024/01/15 07:34:59;;;;;;;16.13;8.60;;;2.00;99.90;;;;;;5054073;28;20436;-67
2024/01/15 07:37:25;;;;;;;10.10;7.80;;;1.90;99.90;;;;;;5045121;28;20734;-67
2024/01/15 07:39:50;;;;;;;12.07;7.87;;;2.10;99.90;;;;;;5034040;28;20427;-68
2024/01/15 07:42:16;;;;;;;10.43;8.07;;;2.10;99.90;;;;;;5034037;28;20195;-67
2024/01/15 07:44:41;;;;;;;13.23;8.70;;;2.10;99.90;;;;;;5033950;28;20213;-67
2024/01/15 07:47:09;;;;;;;12.47;7.80;;;2.20;99.90;;;;;;5039014;28;20761;-67
2024/01/15 07:49:34;;;;;;;14.90;8.07;;;2.10;99.90;;;;;;5034341;28;20163;-68
2024/01/15 07:52:00;;;;;;;12.90;8.17;;;2.00;99.90;;;;;;5033575;28;20410;-68
2024/01/15 07:54:26;;;;;;;10.73;7.20;;;2.00;99.90;;;;;;5032486;28;20219;-67
2024/01/15 07:57:00;;;;;;;10.87;7.47;;;2.10;99.90;;;;;;5037955;28;20163;-68
2024/01/15 07:59:26;;;;;;;11.47;8.43;;;2.00;99.90;;;;;;5053671;28;20192;-68
2024/01/15 08:01:52;;;;;;;12.30;8.37;;;2.00;99.90;;;;;;5053150;28;20453;-69
2024/01/15 08:04:19;;;;;;;11.57;8.30;;;2.00;99.90;;;;;;5053615;28;20413;-69
2024/01/15 08:06:45;;;;;;;12.20;7.27;;;2.10;99.90;;;;;;5051343;28;20414;-69
2024/01/15 08:09:10;;;;;;;9.37;6.93;;;2.10;99.90;;;;;;5033378;28;20752;-69
2024/01/15 08:11:36;;;;;;;13.33;7.80;;;2.20;99.90;;;;;;5033231;28;20175;-68
2024/01/15 08:14:02;;;;;;;13.43;8.20;;;2.20;99.90;;;;;;5033562;28;20168;-68
2024/01/15 08:16:27;;;;;;;10.73;6.90;;;2.10;99.90;;;;;;5033935;28;20175;-68
2024/01/15 08:18:53;;;;;;;12.73;9.03;;;2.20;99.90;;;;;;5053339;28;20174;-69
2024/01/15 08:21:19;;;;;;;10.33;7.53;;;2.30;99.90;;;;;;5053159;28;20199;-69
2024/01/15 08:23:44;;;;;;;12.30;7.40;;;2.30;99.90;;;;;;5053461;28;20419;-68
2024/01/15 08:26:10;;;;;;;10.07;7.80;;;2.30;99.90;;;;;;5052973;28;20209;-67
2024/01/15 08:28:36;;;;;;;9.53;7.10;;;2.20;99.90;;;;;;5034737;28;20164;-68
2024/01/15 08:31:02;;;;;;;9.63;7.10;;;2.20;99.90;;;;;;5033123;28;20406;-67
2024/01/15 08:33:28;;;;;;;12.30;7.17;;;2.20;99.90;;;;;;5033075;28;20534;-68
2024/01/15 08:35:54;;;;;;;11.10;7.20;;;2.30;99.90;;;;;;5033045;28;20936;-69
2024/01/15 08:38:20;;;;;;;11.50;7.40;;;2.40;99.90;;;;;;5048869;28;20440;-68
2024/01/15 08:40:45;;;;;;;13.80;7.60;;;2.30;99.90;;;;;;5053216;28;20459;-68
2024/01/15 08:43:11;;;;;;;10.40;6.87;;;2.40;99.90;;;;;;5053424;28;20167;-67
2024/01/15 08:45:37;;;;;;;11.77;7.23;;;2.50;99.90;;;;;;5052851;28;20214;-69
2024/01/15 08:48:03;;;;;;;11.50;6.90;;;2.50;99.90;;;;;;5039356;28;20175;-68
2024/01/15 08:50:29;;;;;;;11.77;8.47;;;2.70;99.90;;;;;;5032689;28;20250;-69
2024/01/15 08:52:55;;;;;;;14.37;8.60;;;2.90;99.90;;;;;;5033007;28;20405;-68
2024/01/15 08:55:22;;;;;;;10.93;6.50;;;2.90;99.90;;;;;;5032779;28;20966;-69
2024/01/15 08:57:48;;;;;;;10.60;6.53;;;2.90;99.90;;;;;;5044140;28;20408;-68
2024/01/15 09:00:14;;;;;;;11.73;6.90;;;2.90;99.90;;;;;;5052682;28;20397;-68
2024/01/15 09:02:40;;;;;;;8.30;6.00;;;3.00;99.90;;;;;;5052777;28;20452;-68
2024/01/15 09:05:06;;;;;;;9.40;6.60;;;3.00;99.90;;;;;;5034706;28;20870;-68
2024/01/15 09:07:32;;;;;;;12.47;7.03;;;2.90;99.90;;;;;;5043850;28;20666;-68
2024/01/15 09:09:59;;;;;;;10.37;6.73;;;3.00;99.90;;;;;;5033081;28;20737;-68
2024/01/15 09:12:25;;;;;;;9.00;5.60;;;3.10;99.90;;;;;;5033400;28;20398;-68
2024/01/15 09:14:51;;;;;;;8.20;5.37;;;3.20;99.90;;;;;;5036257;28;20425;-68
2024/01/15 09:17:17;;;;;;;9.67;6.77;;;3.30;99.90;;;;;;5025804;28;21002;-68
2024/01/15 09:19:44;;;;;;;9.80;6.10;;;3.40;99.90;;;;;;5056629;28;20480;-68
2024/01/15 09:22:09;;;;;;;8.93;5.93;;;3.30;99.90;;;;;;5056739;28;20540;-67
2024/01/15 09:24:36;;;;;;;6.77;5.43;;;3.20;99.90;;;;;;5057386;28;20889;-68
2024/01/15 09:27:02;;;;;;;7.43;5.70;;;3.20;99.90;;;;;;5052819;28;20173;-69
2024/01/15 09:29:28;;;;;;;7.10;5.20;;;3.20;99.90;;;;;;5018648;28;20414;-69
2024/01/15 09:31:54;;;;;;;7.50;5.63;;;3.30;99.90;;;;;;5018994;28;20417;-68
2024/01/15 09:34:19;;;;;;;9.67;5.93;;;3.10;99.90;;;;;;5036807;28;20439;-69
2024/01/15 09:36:45;;;;;;;7.10;5.60;;;3.20;99.90;;;;;;5038319;28;20164;-68
2024/01/15 09:39:11;;;;;;;6.07;5.30;;;3.40;99.90;;;;;;5056228;28;20171;-68
2024/01/15 09:41:39;;;;;;;8.80;5.90;;;3.40;99.90;;;;;;5055881;28;20194;-69
2024/01/15 09:44:07;;;;;;;7.47;5.47;;;3.50;99.90;;;;;;5037963;28;20170;-69
2024/01/15 09:46:34;;;;;;;6.77;5.07;;;3.40;99.90;;;;;;5036101;28;20964;-69
2024/01/15 09:49:01;;;;;;;9.50;5.27;;;3.30;99.90;;;;;;5056608;28;20405;-68
2024/01/15 09:51:30;;;;;;;11.77;5.77;;;3.30;99.90;;;;;;5056320;28;20489;-68
2024/01/15 09:53:57;;;;;;;8.47;5.40;;;3.40;99.90;;;;;;5056089;28;20407;-68
2024/01/15 09:56:23;;;;;;;10.60;5.70;;;3.50;99.90;;;;;;5056027;28;20918;-69
2024/01/15 09:58:51;;;;;;;9.60;5.90;;;3.40;99.90;;;;;;5037018;28;20410;-69
2024/01/15 10:01:17;;;;;;;7.90;5.00;;;3.30;99.90;;;;;;5035776;28;20894;-69
2024/01/15 10:03:43;;;;;;;9.57;5.77;;;3.40;99.90;;;;;;5018371;28;20453;-69
2024/01/15 10:06:10;;;;;;;9.10;6.23;;;3.20;99.90;;;;;;5037567;28;20426;-69
2024/01/15 10:08:37;;;;;;;9.83;6.07;;;3.20;99.90;;;;;;5036152;28;20175;-69
2024/01/15 10:11:04;;;;;;;9.00;5.67;;;3.20;99.90;;;;;;5035826;28;20410;-69
2024/01/15 10:13:31;;;;;;;8.97;5.70;;;3.10;99.90;;;;;;5047786;28;20413;-69
2024/01/15 10:15:58;;;;;;;16.20;6.43;;;3.10;99.90;;;;;;5055783;28;20483;-69
2024/01/15 10:18:23;;;;;;;8.87;5.07;;;3.10;99.90;;;;;;5055557;28;20921;-69
2024/01/15 10:20:49;;;;;;;7.87;4.87;;;3.10;99.90;;;;;;5055384;28;20445;-68
2024/01/15 10:23:15;;;;;;;7.60;4.77;;;3.20;99.90;;;;;;5045484;28;20257;-69
2024/01/15 10:25:42;;;;;;;8.83;5.80;;;3.10;99.90;;;;;;5034012;28;20286;-68
2024/01/15 10:28:08;;;;;;;6.53;5.70;;;3.20;99.90;;;;;;5035622;28;20402;-69
2024/01/15 10:30:34;;;;;;;5.47;4.77;;;3.30;99.90;;;;;;5035367;28;20409;-69
2024/01/15 10:33:03;;;;;;;7.67;5.00;;;3.30;99.90;;;;;;5042912;28;20163;-69
2024/01/15 10:35:30;;;;;;;9.93;5.77;;;3.40;99.90;;;;;;5055055;28;20884;-68
2024/01/15 10:37:56;;;;;;;9.50;5.40;;;3.50;99.90;;;;;;5055368;28;20814;-69
2024/01/15 10:40:21;;;;;;;7.77;4.87;;;3.30;99.90;;;;;;5054926;28;20410;-69
2024/01/15 10:42:47;;;;;;;7.10;4.60;;;3.30;99.90;;;;;;5049403;28;20167;-69
2024/01/15 10:45:14;;;;;;;6.00;5.40;;;3.40;99.90;;;;;;5035052;28;20187;-68
2024/01/15 10:47:43;;;;;;;6.70;4.70;;;3.30;99.90;;;;;;5035595;28;20155;-68
2024/01/15 10:50:10;;;;;;;7.10;4.90;;;3.40;99.90;;;;;;5034891;28;20483;-68
2024/01/15 10:52:36;;;;;;;5.77;4.67;;;3.50;99.90;;;;;;5039688;28;20763;-67
2024/01/15 10:55:04;;;;;;;10.43;4.70;;;3.50;99.90;;;;;;5054681;28;20418;-68
2024/01/15 10:57:30;;;;;;;9.00;5.03;;;3.50;99.90;;;;;;5054796;28;20398;-67
2024/01/15 10:59:56;;;;;;;7.70;4.97;;;3.50;99.90;;;;;;5054877;28;20401;-66
2024/01/15 11:02:22;;;;;;;6.10;4.73;;;3.40;99.90;;;;;;5052574;28;20476;-68
2024/01/15 11:04:47;;;;;;;7.40;5.63;;;3.60;99.90;;;;;;5035089;28;20463;-67
2024/01/15 11:07:14;;;;;;;10.33;5.20;;;3.60;99.90;;;;;;5034591;28;20402;-68
2024/01/15 11:09:40;;;;;;;9.50;6.00;;;3.60;99.90;;;;;;5034768;28;20198;-68
2024/01/15 11:12:13;;;;;;;7.00;5.37;;;3.70;99.90;;;;;;5016685;28;20454;-68
2024/01/15 11:14:45;;;;;;;6.43;4.90;;;3.60;99.90;;;;;;5014891;28;20308;-67
2024/01/15 11:17:12;;;;;;;6.57;4.60;;;3.80;99.90;;;;;;5014806;28;20391;-68
2024/01/15 11:19:42;;;;;;;8.03;5.10;;;3.90;99.90;;;;;;5015102;28;20411;-69
2024/01/15 11:22:09;;;;;;;5.43;4.90;;;3.90;99.90;;;;;;5014537;28;20864;-68
2024/01/15 11:24:39;;;;;;;8.30;5.97;;;3.70;99.90;;;;;;5054247;28;20978;-68
2024/01/15 11:27:05;;;;;;;7.20;5.13;;;3.60;99.90;;;;;;5054486;28;20765;-68
2024/01/15 11:29:35;;;;;;;9.67;5.43;;;3.40;99.90;;;;;;5044252;28;20398;-68
2024/01/15 11:32:08;;;;;;;9.77;5.93;;;3.50;99.90;;;;;;5034810;28;20470;-68
2024/01/15 11:35:01;;;;;;;7.57;5.17;;;3.70;99.90;;;;;;5053717;28;20431;-68
2024/01/15 11:37:29;;;;;;;8.07;5.70;;;3.90;99.90;;;;;;5035798;28;20935;-69
2024/01/15 11:40:00;;;;;;;10.87;6.17;;;3.90;99.90;;;;;;5054001;28;20408;-69
2024/01/15 11:42:27;;;;;;;9.57;6.23;;;3.80;99.90;;;;;;5038419;28;20446;-68
2024/01/15 11:44:54;;;;;;;6.20;5.03;;;3.60;99.90;;;;;;5053743;28;20444;-69
2024/01/15 11:47:51;;;;;;;8.60;5.57;;;3.50;99.90;;;;;;5054375;28;20435;-68
2024/01/15 11:50:17;;;;;;;7.43;5.93;;;3.50;99.90;;;;;;5054370;28;20382;-69
2024/01/15 11:52:56;;;;;;;8.40;5.80;;;3.40;99.90;;;;;;5049652;28;20464;-68
2024/01/15 11:55:37;;;;;;;8.67;6.53;;;3.30;99.90;;;;;;5036228;28;20422;-68
2024/01/15 11:58:08;;;;;;;8.77;6.53;;;3.30;99.90;;;;;;5033850;28;20378;-68
2024/01/15 12:00:33;;;;;;;10.40;7.27;;;3.50;99.90;;;;;;5033605;28;20430;-68
2024/01/15 12:02:59;;;;;;;12.60;6.47;;;3.40;99.90;;;;;;5039882;28;20915;-68
2024/01/15 12:05:25;;;;;;;9.17;6.77;;;3.40;99.90;;;;;;5035590;28;20197;-68
2024/01/15 12:07:50;;;;;;;8.30;6.40;;;3.30;99.90;;;;;;5053495;28;20170;-69
2024/01/15 12:10:20;;;;;;;8.97;6.27;;;3.40;99.90;;;;;;5053664;28;20179;-69
2024/01/15 12:13:21;;;;;;;7.27;5.07;;;3.50;99.90;;;;;;5049031;28;20631;-69
2024/01/15 12:15:48;;;;;;;8.23;6.30;;;3.70;99.90;;;;;;5020344;28;20445;-68
2024/01/15 12:18:15;;;;;;;8.73;6.27;;;3.70;99.90;;;;;;5033442;28;20452;-69
2024/01/15 12:20:42;;;;;;;8.00;6.10;;;3.50;99.90;;;;;;5033279;28;20813;-67
2024/01/15 12:23:08;;;;;;;7.83;6.13;;;3.40;99.90;;;;;;5040333;28;20393;-69
2024/01/15 12:25:34;;;;;;;14.27;7.10;;;3.30;99.90;;;;;;5035328;28;20444;-69
2024/01/15 12:28:00;;;;;;;8.43;6.60;;;3.00;99.90;;;;;;5035248;28;20985;-68
2024/01/15 12:30:27;;;;;;;11.07;7.00;;;2.90;99.90;;;;;;5053216;28;20661;-68
2024/01/15 12:32:54;;;;;;;8.57;6.33;;;2.70;99.90;;;;;;5048344;28;20398;-69
2024/01/15 12:35:20;;;;;;;9.70;6.90;;;2.80;99.90;;;;;;5033191;28;20480;-69
2024/01/15 12:37:47;;;;;;;9.60;7.43;;;2.80;99.90;;;;;;5033121;28;20395;-68
2024/01/15 12:40:14;;;;;;;10.77;6.97;;;2.50;99.90;;;;;;5033073;28;20175;-68
2024/01/15 12:42:40;;;;;;;8.40;6.83;;;2.50;99.90;;;;;;5018414;28;20432;-68
2024/01/15 12:45:06;;;;;;;8.80;6.60;;;2.60;99.90;;;;;;5052890;28;20460;-68